createdAt,value
2016-04-15T00:00:57.332Z,0
2016-04-15T00:01:57.335Z,0
2016-04-15T00:02:57.337Z,0
2016-04-15T00:03:57.340Z,0
2016-04-15T00:04:57.359Z,0
2016-04-15T00:05:57.361Z,0
2016-04-15T00:06:57.364Z,0
2016-04-15T00:07:57.367Z,0
2016-04-15T00:08:57.369Z,0
2016-04-15T00:09:57.387Z,0
2016-04-15T00:10:57.390Z,0
2016-04-15T00:11:57.393Z,0
2016-04-15T00:12:57.396Z,0
2016-04-15T00:13:57.414Z,0
2016-04-15T00:14:57.417Z,0
2016-04-15T00:15:57.419Z,0
2016-04-15T00:16:57.422Z,0
2016-04-15T00:17:57.425Z,0
2016-04-15T00:18:57.442Z,0
2016-04-15T00:20:02.401Z,0
2016-04-15T00:20:57.291Z,0
2016-04-15T00:21:57.450Z,0
2016-04-15T00:22:57.469Z,0
2016-04-15T00:23:57.471Z,0
2016-04-15T00:24:57.474Z,0
2016-04-15T00:25:57.477Z,0
2016-04-15T00:26:57.496Z,0
2016-04-15T00:27:57.514Z,0
2016-04-15T00:28:57.501Z,0
2016-04-15T00:29:57.519Z,0
2016-04-15T00:30:57.381Z,0
2016-04-15T00:31:57.524Z,0
2016-04-15T00:32:57.528Z,0
2016-04-15T00:33:57.547Z,0
2016-04-15T00:34:57.565Z,0
2016-04-15T00:35:57.544Z,0
2016-04-15T00:36:57.562Z,0
2016-04-15T00:37:57.565Z,0
2016-04-15T00:38:57.567Z,0
2016-04-15T00:39:57.570Z,0
2016-04-15T00:40:57.588Z,0
2016-04-15T00:41:57.590Z,0
2016-04-15T00:42:57.593Z,0
2016-04-15T00:43:57.611Z,0
2016-04-15T00:44:57.567Z,0
2016-04-15T00:45:57.617Z,0
2016-04-15T00:46:57.604Z,0
2016-04-15T00:47:57.607Z,0
2016-04-15T00:48:57.610Z,0
2016-04-15T00:49:57.628Z,0
2016-04-15T00:50:57.615Z,0
2016-04-15T00:51:57.634Z,0
2016-04-15T00:52:57.636Z,0
2016-04-15T00:53:57.655Z,0
2016-04-15T00:54:57.657Z,0
2016-04-15T00:55:57.660Z,0
2016-04-15T00:56:57.677Z,0
2016-04-15T00:57:57.665Z,0
2016-04-15T00:58:57.683Z,0
2016-04-15T00:59:57.670Z,0
2016-04-15T01:00:57.704Z,0
2016-04-15T01:01:57.691Z,0
2016-04-15T01:02:57.710Z,0
2016-04-15T01:03:57.697Z,0
2016-04-15T01:04:57.715Z,0
2016-04-15T01:05:57.718Z,0
2016-04-15T01:06:57.735Z,0
2016-04-15T01:07:57.738Z,0
2016-04-15T01:08:57.741Z,0
2016-04-15T01:09:57.760Z,0
2016-04-15T01:10:57.746Z,0
2016-04-15T01:11:57.749Z,0
2016-04-15T01:12:57.751Z,0
2016-04-15T01:13:57.770Z,0
2016-04-15T01:14:57.789Z,0
2016-04-15T01:15:57.775Z,0
2016-04-15T01:16:57.795Z,0
2016-04-15T01:17:57.781Z,0
2016-04-15T01:18:57.800Z,0
2016-04-15T01:19:57.818Z,0
2016-04-15T01:20:57.883Z,0
2016-04-15T01:21:57.823Z,0
2016-04-15T01:22:57.841Z,0
2016-04-15T01:23:57.844Z,0
2016-04-15T01:24:57.831Z,0
2016-04-15T01:25:57.849Z,0
2016-04-15T01:26:57.869Z,0
2016-04-15T01:27:57.855Z,0
2016-04-15T01:28:57.858Z,0
2016-04-15T01:29:58.111Z,0
2016-04-15T01:30:57.879Z,0
2016-04-15T01:31:57.882Z,0
2016-04-15T01:32:57.884Z,0
2016-04-15T01:33:57.887Z,0
2016-04-15T01:34:57.890Z,0
2016-04-15T01:35:57.908Z,0
2016-04-15T01:36:57.895Z,0
2016-04-15T01:37:57.913Z,0
2016-04-15T01:38:57.915Z,0
2016-04-15T01:39:57.934Z,0
2016-04-15T01:40:57.937Z,0
2016-04-15T01:41:57.939Z,0
2016-04-15T01:42:57.943Z,0
2016-04-15T01:43:57.945Z,0
2016-04-15T01:44:57.979Z,0
2016-04-15T01:45:57.951Z,0
2016-04-15T01:46:57.968Z,0
2016-04-15T01:47:57.987Z,0
2016-04-15T01:48:57.973Z,0
2016-04-15T01:49:57.992Z,0
2016-04-15T01:50:57.979Z,0
2016-04-15T01:51:57.997Z,0
2016-04-15T01:52:58.016Z,0
2016-04-15T01:53:58.018Z,0
2016-04-15T01:54:58.021Z,0
2016-04-15T01:55:58.024Z,0
2016-04-15T01:56:58.026Z,0
2016-04-15T01:57:58.030Z,0
2016-04-15T01:58:58.032Z,0
2016-04-15T01:59:58.222Z,0
2016-04-15T02:00:58.038Z,0
2016-04-15T02:01:58.056Z,0
2016-04-15T02:02:58.074Z,0
2016-04-15T02:03:58.061Z,0
2016-04-15T02:04:58.063Z,0
2016-04-15T02:05:58.082Z,0
2016-04-15T02:06:58.101Z,0
2016-04-15T02:07:58.104Z,0
2016-04-15T02:08:58.091Z,0
2016-04-15T02:09:58.124Z,0
2016-04-15T02:10:58.096Z,0
2016-04-15T02:11:58.115Z,0
2016-04-15T02:12:58.117Z,0
2016-04-15T02:13:58.120Z,0
2016-04-15T02:14:58.231Z,0
2016-04-15T02:15:58.140Z,0
2016-04-15T02:16:58.143Z,0
2016-04-15T02:17:58.145Z,0
2016-04-15T02:18:58.148Z,0
2016-04-15T02:19:58.150Z,0
2016-04-15T02:20:58.169Z,0
2016-04-15T02:21:58.172Z,0
2016-04-15T02:22:58.174Z,0
2016-04-15T02:23:58.193Z,0
2016-04-15T02:24:58.195Z,0
2016-04-15T02:25:58.230Z,0
2016-04-15T02:26:58.045Z,0
2016-04-15T02:27:58.203Z,0
2016-04-15T02:28:58.206Z,0
2016-04-15T02:29:58.475Z,0
2016-04-15T02:30:58.227Z,0
2016-04-15T02:31:58.230Z,0
2016-04-15T02:32:58.249Z,0
2016-04-15T02:33:58.235Z,0
2016-04-15T02:34:58.254Z,0
2016-04-15T02:35:58.271Z,0
2016-04-15T02:36:58.259Z,0
2016-04-15T02:37:58.262Z,0
2016-04-15T02:38:58.265Z,0
2016-04-15T02:39:58.283Z,0
2016-04-15T02:40:58.301Z,0
2016-04-15T02:41:58.288Z,0
2016-04-15T02:42:58.307Z,0
2016-04-15T02:43:58.293Z,0
2016-04-15T02:44:58.468Z,0
2016-04-15T02:45:58.314Z,0
2016-04-15T02:46:58.317Z,0
2016-04-15T02:47:58.320Z,0
2016-04-15T02:48:58.354Z,0
2016-04-15T02:49:58.326Z,0
2016-04-15T02:50:58.345Z,0
2016-04-15T02:51:58.347Z,0
2016-04-15T02:52:58.350Z,0
2016-04-15T02:53:58.353Z,0
2016-04-15T02:54:58.370Z,0
2016-04-15T02:55:58.217Z,0
2016-04-15T02:56:58.375Z,0
2016-04-15T02:57:58.394Z,0
2016-04-15T02:58:58.397Z,0
2016-04-15T02:59:58.430Z,0
2016-04-15T03:00:58.558Z,0
2016-04-15T03:01:58.405Z,0
2016-04-15T03:02:58.439Z,0
2016-04-15T03:03:58.425Z,0
2016-04-15T03:04:58.428Z,0
2016-04-15T03:05:58.431Z,0
2016-04-15T03:06:58.449Z,0
2016-04-15T03:07:58.452Z,0
2016-04-15T03:08:58.439Z,0
2016-04-15T03:09:58.457Z,0
2016-04-15T03:10:58.476Z,0
2016-04-15T03:11:58.446Z,0
2016-04-15T03:12:58.512Z,0
2016-04-15T03:13:58.499Z,0
2016-04-15T03:14:58.533Z,0
2016-04-15T03:15:58.504Z,0
2016-04-15T03:16:58.492Z,0
2016-04-15T03:17:58.494Z,0
2016-04-15T03:18:58.512Z,0
2016-04-15T03:19:58.515Z,0
2016-04-15T03:20:58.534Z,0
2016-04-15T03:21:58.521Z,0
2016-04-15T03:22:58.539Z,0
2016-04-15T03:23:58.542Z,0
2016-04-15T03:24:58.545Z,0
2016-04-15T03:25:58.547Z,0
2016-04-15T03:26:58.550Z,0
2016-04-15T03:27:58.568Z,0
2016-04-15T03:28:58.571Z,0
2016-04-15T03:29:58.589Z,0
2016-04-15T03:30:58.577Z,0
2016-04-15T03:31:58.580Z,0
2016-04-15T03:32:58.597Z,0
2016-04-15T03:33:58.616Z,0
2016-04-15T03:34:58.619Z,0
2016-04-15T03:35:58.605Z,0
2016-04-15T03:36:58.624Z,0
2016-04-15T03:37:58.626Z,0
2016-04-15T03:38:58.613Z,0
2016-04-15T03:39:58.476Z,0
2016-04-15T03:40:58.635Z,0
2016-04-15T03:41:58.637Z,0
2016-04-15T03:42:58.671Z,0
2016-04-15T03:43:58.658Z,0
2016-04-15T03:44:58.676Z,0
2016-04-15T03:45:58.663Z,0
2016-04-15T03:46:58.682Z,0
2016-04-15T03:47:58.669Z,0
2016-04-15T03:48:58.687Z,0
2016-04-15T03:49:58.690Z,0
2016-04-15T03:50:58.692Z,0
2016-04-15T03:51:58.711Z,0
2016-04-15T03:52:58.714Z,0
2016-04-15T03:53:58.716Z,0
2016-04-15T03:54:58.719Z,0
2016-04-15T03:55:58.737Z,0
2016-04-15T03:56:58.739Z,0
2016-04-15T03:57:58.742Z,0
2016-04-15T03:58:58.744Z,0
2016-04-15T03:59:58.763Z,0
2016-04-15T04:00:58.766Z,0
2016-04-15T04:01:58.769Z,0
2016-04-15T04:02:58.756Z,0
2016-04-15T04:03:58.790Z,0
2016-04-15T04:04:58.777Z,0
2016-04-15T04:05:58.796Z,0
2016-04-15T04:06:58.798Z,0
2016-04-15T04:07:58.801Z,0
2016-04-15T04:08:58.804Z,0
2016-04-15T04:09:58.665Z,0
2016-04-15T04:10:58.809Z,0
2016-04-15T04:11:58.827Z,0
2016-04-15T04:12:58.674Z,0
2016-04-15T04:13:58.832Z,0
2016-04-15T04:14:58.851Z,0
2016-04-15T04:15:58.854Z,0
2016-04-15T04:16:58.840Z,0
2016-04-15T04:17:58.859Z,0
2016-04-15T04:18:58.877Z,0
2016-04-15T04:19:58.864Z,0
2016-04-15T04:20:58.882Z,0
2016-04-15T04:21:58.885Z,0
2016-04-15T04:22:58.887Z,0
2016-04-15T04:23:58.906Z,0
2016-04-15T04:24:59.002Z,0
2016-04-15T04:25:58.911Z,0
2016-04-15T04:26:58.898Z,0
2016-04-15T04:27:58.917Z,0
2016-04-15T04:28:58.920Z,0
2016-04-15T04:29:58.970Z,0
2016-04-15T04:31:00.003Z,0
2016-04-15T04:31:58.944Z,0
2016-04-15T04:32:58.947Z,0
2016-04-15T04:33:58.949Z,0
2016-04-15T04:34:58.967Z,0
2016-04-15T04:35:58.969Z,0
2016-04-15T04:36:58.957Z,0
2016-04-15T04:37:58.975Z,0
2016-04-15T04:38:58.977Z,0
2016-04-15T04:39:58.980Z,0
2016-04-15T04:40:58.998Z,0
2016-04-15T04:41:58.985Z,0
2016-04-15T04:42:59.004Z,0
2016-04-15T04:43:59.007Z,0
2016-04-15T04:44:59.041Z,0
2016-04-15T04:45:59.043Z,0
2016-04-15T04:46:59.015Z,0
2016-04-15T04:47:59.034Z,0
2016-04-15T04:48:59.036Z,0
2016-04-15T04:49:59.039Z,0
2016-04-15T04:50:59.056Z,0
2016-04-15T04:51:59.279Z,0
2016-04-15T04:52:59.249Z,0
2016-04-15T04:53:58.923Z,0
2016-04-15T04:54:59.306Z,0
2016-04-15T04:55:59.104Z,0
2016-04-15T04:56:59.123Z,0
2016-04-15T04:57:59.109Z,0
2016-04-15T04:58:59.112Z,0
2016-04-15T04:59:59.100Z,0
2016-04-15T05:00:59.400Z,0
2016-04-15T05:01:59.136Z,0
2016-04-15T05:02:59.123Z,0
2016-04-15T05:03:59.126Z,0
2016-04-15T05:04:59.128Z,0
2016-04-15T05:05:59.131Z,0
2016-04-15T05:06:59.133Z,0
2016-04-15T05:07:59.152Z,0
2016-04-15T05:08:59.171Z,0
2016-04-15T05:09:59.157Z,0
2016-04-15T05:10:59.177Z,0
2016-04-15T05:11:59.179Z,0
2016-04-15T05:12:59.182Z,5
2016-04-15T05:13:59.185Z,5
2016-04-15T05:14:59.202Z,5
2016-04-15T05:15:59.205Z,5
2016-04-15T05:16:59.208Z,5
2016-04-15T05:17:59.210Z,5
2016-04-15T05:18:59.213Z,5
2016-04-15T05:19:59.231Z,5
2016-04-15T05:20:59.234Z,5
2016-04-15T05:21:59.237Z,0
2016-04-15T05:22:59.239Z,0
2016-04-15T05:23:59.258Z,0
2016-04-15T05:24:59.261Z,0
2016-04-15T05:25:59.263Z,0
2016-04-15T05:26:59.250Z,0
2016-04-15T05:27:59.284Z,0
2016-04-15T05:28:59.272Z,0
2016-04-15T05:29:59.275Z,0
2016-04-15T05:30:59.323Z,0
2016-04-15T05:31:59.311Z,0
2016-04-15T05:32:59.313Z,0
2016-04-15T05:33:59.300Z,0
2016-04-15T05:34:59.319Z,0
2016-04-15T05:35:59.336Z,0
2016-04-15T05:36:59.325Z,0
2016-04-15T05:37:59.327Z,0
2016-04-15T05:38:59.330Z,5
2016-04-15T05:39:59.348Z,0
2016-04-15T05:40:59.350Z,0
2016-04-15T05:41:59.353Z,0
2016-04-15T05:42:59.355Z,0
2016-04-15T05:43:59.390Z,0
2016-04-15T05:44:59.361Z,5
2016-04-15T05:45:59.863Z,5
2016-04-15T05:46:59.398Z,5
2016-04-15T05:47:59.385Z,5
2016-04-15T05:48:59.403Z,5
2016-04-15T05:49:59.421Z,10
2016-04-15T05:50:59.409Z,10
2016-04-15T05:51:59.411Z,10
2016-04-15T05:52:59.415Z,15
2016-04-15T05:53:59.432Z,15
2016-04-15T05:54:59.451Z,15
2016-04-15T05:55:59.438Z,10
2016-04-15T05:56:59.456Z,5
2016-04-15T05:57:59.443Z,5
2016-04-15T05:58:59.445Z,5
2016-04-15T05:59:59.464Z,5
2016-04-15T06:00:59.920Z,5
2016-04-15T06:01:59.469Z,10
2016-04-15T06:02:59.488Z,10
2016-04-15T06:03:59.490Z,10
2016-04-15T06:04:59.508Z,10
2016-04-15T06:05:59.496Z,15
2016-04-15T06:06:59.513Z,15
2016-04-15T06:07:59.501Z,10
2016-04-15T06:08:59.535Z,10
2016-04-15T06:09:59.882Z,10
2016-04-15T06:10:59.525Z,10
2016-04-15T06:11:59.528Z,10
2016-04-15T06:12:59.546Z,10
2016-04-15T06:13:59.564Z,15
2016-04-15T06:14:59.551Z,20
2016-04-15T06:16:00.304Z,15
2016-04-15T06:16:59.557Z,15
2016-04-15T06:17:59.559Z,10
2016-04-15T06:18:59.577Z,10
2016-04-15T06:19:59.580Z,10
2016-04-15T06:20:59.636Z,10
2016-04-15T06:21:59.639Z,10
2016-04-15T06:22:59.611Z,10
2016-04-15T06:23:59.598Z,5
2016-04-15T06:24:59.617Z,5
2016-04-15T06:25:59.634Z,5
2016-04-15T06:26:59.622Z,10
2016-04-15T06:27:59.629Z,5
2016-04-15T06:28:59.647Z,5
2016-04-15T06:29:59.634Z,5
2016-04-15T06:30:59.793Z,10
2016-04-15T06:31:59.499Z,10
2016-04-15T06:32:59.674Z,10
2016-04-15T06:33:59.661Z,10
2016-04-15T06:34:59.696Z,10
2016-04-15T06:35:59.682Z,10
2016-04-15T06:36:59.701Z,10
2016-04-15T06:37:59.719Z,10
2016-04-15T06:38:59.690Z,10
2016-04-15T06:39:59.693Z,15
2016-04-15T06:40:59.711Z,15
2016-04-15T06:41:59.714Z,20
2016-04-15T06:42:59.717Z,20
2016-04-15T06:43:59.734Z,20
2016-04-15T06:44:59.737Z,15
2016-04-15T06:45:59.645Z,20
2016-04-15T06:46:59.742Z,20
2016-04-15T06:47:59.761Z,20
2016-04-15T06:48:59.778Z,20
2016-04-15T06:49:59.767Z,20
2016-04-15T06:50:59.769Z,25
2016-04-15T06:51:59.772Z,25
2016-04-15T06:52:59.775Z,25
2016-04-15T06:53:59.777Z,25
2016-04-15T06:54:59.920Z,20
2016-04-15T06:55:59.797Z,25
2016-04-15T06:56:59.800Z,25
2016-04-15T06:57:59.803Z,25
2016-04-15T06:58:59.822Z,25
2016-04-15T06:59:59.825Z,25
2016-04-15T07:01:00.312Z,30
2016-04-15T07:01:59.830Z,35
2016-04-15T07:02:59.849Z,40
2016-04-15T07:03:59.851Z,40
2016-04-15T07:04:59.854Z,50
2016-04-15T07:05:59.857Z,45
2016-04-15T07:06:59.859Z,25
2016-04-15T07:07:59.877Z,20
2016-04-15T07:08:59.896Z,15
2016-04-15T07:09:59.882Z,15
2016-04-15T07:10:59.885Z,10
2016-04-15T07:11:59.887Z,10
2016-04-15T07:12:59.890Z,10
2016-04-15T07:13:59.909Z,10
2016-04-15T07:14:59.912Z,10
2016-04-15T07:16:00.071Z,10
2016-04-15T07:16:59.917Z,15
2016-04-15T07:17:59.936Z,15
2016-04-15T07:18:59.939Z,15
2016-04-15T07:19:59.942Z,15
2016-04-15T07:20:59.964Z,15
2016-04-15T07:21:59.810Z,15
2016-04-15T07:22:59.813Z,15
2016-04-15T07:23:59.957Z,15
2016-04-15T07:24:59.974Z,10
2016-04-15T07:25:59.962Z,15
2016-04-15T07:26:59.979Z,15
2016-04-15T07:27:59.987Z,15
2016-04-15T07:29:00.007Z,15
2016-04-15T07:29:59.993Z,15
2016-04-15T07:31:09.140Z,15
2016-04-15T07:32:00.015Z,15
2016-04-15T07:33:00.017Z,15
2016-04-15T07:34:00.020Z,15
2016-04-15T07:35:00.022Z,15
2016-04-15T07:36:00.040Z,15
2016-04-15T07:37:00.043Z,10
2016-04-15T07:38:00.045Z,10
2016-04-15T07:39:00.048Z,15
2016-04-15T07:40:00.051Z,10
2016-04-15T07:41:00.069Z,10
2016-04-15T07:42:00.073Z,10
2016-04-15T07:43:00.075Z,10
2016-04-15T07:44:00.078Z,15
2016-04-15T07:45:00.081Z,15
2016-04-15T07:45:59.989Z,15
2016-04-15T07:47:00.102Z,15
2016-04-15T07:48:00.119Z,15
2016-04-15T07:49:00.122Z,15
2016-04-15T07:50:00.110Z,15
2016-04-15T07:51:00.143Z,15
2016-04-15T07:52:00.130Z,20
2016-04-15T07:53:00.148Z,20
2016-04-15T07:54:00.151Z,20
2016-04-15T07:55:00.154Z,20
2016-04-15T07:56:00.156Z,25
2016-04-15T07:57:00.191Z,25
2016-04-15T07:58:00.177Z,30
2016-04-15T07:59:00.180Z,30
2016-04-15T08:00:00.182Z,25
2016-04-15T08:01:00.545Z,20
2016-04-15T08:02:00.188Z,15
2016-04-15T08:03:00.206Z,15
2016-04-15T08:04:00.193Z,15
2016-04-15T08:05:00.212Z,20
2016-04-15T08:06:00.215Z,20
2016-04-15T08:07:00.234Z,15
2016-04-15T08:08:00.221Z,10
2016-04-15T08:09:00.239Z,10
2016-04-15T08:10:00.242Z,15
2016-04-15T08:11:03.306Z,15
2016-04-15T08:12:00.247Z,20
2016-04-15T08:13:00.265Z,30
2016-04-15T08:14:00.267Z,40
2016-04-15T08:15:00.286Z,60
2016-04-15T08:16:00.350Z,75
2016-04-15T08:17:00.292Z,60
2016-04-15T08:18:00.294Z,60
2016-04-15T08:19:00.297Z,45
2016-04-15T08:20:00.316Z,50
2016-04-15T08:21:00.323Z,45
2016-04-15T08:22:00.326Z,40
2016-04-15T08:23:00.329Z,45
2016-04-15T08:24:00.331Z,50
2016-04-15T08:25:00.350Z,55
2016-04-15T08:26:00.352Z,65
2016-04-15T08:27:00.371Z,95
2016-04-15T08:28:00.374Z,110
2016-04-15T08:29:00.376Z,105
2016-04-15T08:30:00.380Z,75
2016-04-15T08:31:00.382Z,65
2016-04-15T08:32:00.405Z,60
2016-04-15T08:33:00.450Z,75
2016-04-15T08:34:00.511Z,95
2016-04-15T08:35:00.556Z,130
2016-04-15T08:36:00.602Z,145
2016-04-15T08:37:00.644Z,150
2016-04-15T08:38:00.662Z,145
2016-04-15T08:39:00.680Z,140
2016-04-15T08:40:00.729Z,135
2016-04-15T08:41:00.731Z,125
2016-04-15T08:42:00.748Z,110
2016-04-15T08:43:00.772Z,95
2016-04-15T08:44:00.780Z,75
2016-04-15T08:45:00.789Z,70
2016-04-15T08:46:00.813Z,65
2016-04-15T08:47:01.163Z,65
2016-04-15T08:48:00.840Z,70
2016-04-15T08:49:00.829Z,70
2016-04-15T08:50:01.084Z,70
2016-04-15T08:51:00.853Z,90
2016-04-15T08:52:00.858Z,85
2016-04-15T08:53:00.862Z,110
2016-04-15T08:54:00.881Z,105
2016-04-15T08:55:00.901Z,155
2016-04-15T08:56:00.888Z,150
2016-04-15T08:57:00.891Z,125
2016-04-15T08:58:00.910Z,130
2016-04-15T08:59:00.928Z,115
2016-04-15T09:00:00.917Z,110
2016-04-15T09:01:00.934Z,95
2016-04-15T09:02:00.937Z,85
2016-04-15T09:03:00.956Z,65
2016-04-15T09:04:00.943Z,60
2016-04-15T09:05:00.962Z,50
2016-04-15T09:06:00.980Z,35
2016-04-15T09:07:00.967Z,40
2016-04-15T09:08:00.829Z,30
2016-04-15T09:09:00.972Z,25
2016-04-15T09:10:00.990Z,25
2016-04-15T09:11:01.009Z,30
2016-04-15T09:12:01.011Z,35
2016-04-15T09:13:01.014Z,45
2016-04-15T09:14:01.016Z,55
2016-04-15T09:15:01.035Z,70
2016-04-15T09:16:01.038Z,70
2016-04-15T09:17:01.056Z,70
2016-04-15T09:18:01.059Z,80
2016-04-15T09:19:01.061Z,90
2016-04-15T09:20:01.064Z,95
2016-04-15T09:21:01.082Z,100
2016-04-15T09:22:01.101Z,95
2016-04-15T09:23:01.088Z,100
2016-04-15T09:24:01.091Z,100
2016-04-15T09:25:01.093Z,110
2016-04-15T09:26:01.113Z,125
2016-04-15T09:27:01.130Z,95
2016-04-15T09:28:01.133Z,90
2016-04-15T09:29:01.135Z,70
2016-04-15T09:30:01.138Z,85
2016-04-15T09:32:01.143Z,70
2016-04-15T09:33:01.146Z,75
2016-04-15T09:34:01.164Z,110
2016-04-15T09:35:01.182Z,105
2016-04-15T09:36:01.185Z,130
2016-04-15T09:37:01.188Z,120
2016-04-15T09:38:01.207Z,105
2016-04-15T09:39:01.209Z,100
2016-04-15T09:40:01.212Z,90
2016-04-15T09:41:01.214Z,80
2016-04-15T09:42:01.217Z,70
2016-04-15T09:43:01.220Z,75
2016-04-15T09:44:01.238Z,90
2016-04-15T09:45:01.241Z,75
2016-04-15T09:46:01.243Z,70
2016-04-15T09:47:01.246Z,60
2016-04-15T09:48:01.264Z,60
2016-04-15T09:49:01.267Z,60
2016-04-15T09:50:01.286Z,55
2016-04-15T09:51:01.288Z,50
2016-04-15T09:52:01.307Z,45
2016-04-15T09:53:01.293Z,40
2016-04-15T09:54:01.312Z,35
2016-04-15T09:55:01.190Z,30
2016-04-15T09:56:01.318Z,30
2016-04-15T09:57:01.321Z,35
2016-04-15T09:58:01.339Z,35
2016-04-15T09:59:01.357Z,25
2016-04-15T10:00:01.360Z,25
2016-04-15T10:01:01.362Z,20
2016-04-15T10:02:01.380Z,15
2016-04-15T10:03:01.367Z,15
2016-04-15T10:04:01.385Z,10
2016-04-15T10:05:01.388Z,10
2016-04-15T10:06:01.390Z,15
2016-04-15T10:07:01.425Z,20
2016-04-15T10:08:01.396Z,25
2016-04-15T10:09:01.259Z,35
2016-04-15T10:10:01.418Z,45
2016-04-15T10:11:01.436Z,50
2016-04-15T10:12:01.439Z,50
2016-04-15T10:13:01.456Z,50
2016-04-15T10:14:01.444Z,45
2016-04-15T10:15:01.447Z,40
2016-04-15T10:16:01.449Z,35
2016-04-15T10:17:01.452Z,35
2016-04-15T10:18:01.469Z,35
2016-04-15T10:19:01.472Z,35
2016-04-15T10:20:01.491Z,35
2016-04-15T10:21:01.510Z,40
2016-04-15T10:22:01.513Z,40
2016-04-15T10:23:01.499Z,40
2016-04-15T10:24:01.518Z,40
2016-04-15T10:25:01.566Z,40
2016-04-15T10:26:01.569Z,45
2016-04-15T10:27:01.557Z,45
2016-04-15T10:28:01.560Z,50
2016-04-15T10:29:01.547Z,55
2016-04-15T10:30:01.597Z,60
2016-04-15T10:31:01.568Z,80
2016-04-15T10:32:01.633Z,90
2016-04-15T10:33:01.588Z,95
2016-04-15T10:34:01.576Z,95
2016-04-15T10:35:01.593Z,100
2016-04-15T10:36:01.596Z,90
2016-04-15T10:37:01.599Z,80
2016-04-15T10:38:01.617Z,80
2016-04-15T10:39:01.621Z,80
2016-04-15T10:40:01.623Z,80
2016-04-15T10:41:01.626Z,75
2016-04-15T10:42:01.659Z,75
2016-04-15T10:43:01.647Z,80
2016-04-15T10:44:01.650Z,95
2016-04-15T10:45:01.667Z,105
2016-04-15T10:46:01.686Z,105
2016-04-15T10:47:01.860Z,110
2016-04-15T10:48:01.675Z,105
2016-04-15T10:49:01.694Z,115
2016-04-15T10:50:01.712Z,115
2016-04-15T10:51:01.716Z,120
2016-04-15T10:52:01.718Z,115
2016-04-15T10:53:01.721Z,110
2016-04-15T10:54:01.738Z,105
2016-04-15T10:55:01.726Z,95
2016-04-15T10:56:01.744Z,90
2016-04-15T10:57:01.747Z,90
2016-04-15T10:58:01.750Z,100
2016-04-15T10:59:01.753Z,120
2016-04-15T11:00:01.771Z,95
2016-04-15T11:02:01.917Z,105
2016-04-15T11:03:01.794Z,95
2016-04-15T11:04:01.797Z,105
2016-04-15T11:05:01.799Z,100
2016-04-15T11:06:01.818Z,100
2016-04-15T11:07:01.820Z,100
2016-04-15T11:08:01.839Z,100
2016-04-15T11:09:01.842Z,100
2016-04-15T11:10:01.845Z,105
2016-04-15T11:11:01.848Z,115
2016-04-15T11:12:01.850Z,125
2016-04-15T11:13:01.868Z,110
2016-04-15T11:14:01.871Z,110
2016-04-15T11:15:01.889Z,115
2016-04-15T11:16:01.892Z,130
2016-04-15T11:17:01.863Z,135
2016-04-15T11:18:01.897Z,135
2016-04-15T11:19:01.915Z,135
2016-04-15T11:20:01.918Z,130
2016-04-15T11:21:01.936Z,115
2016-04-15T11:22:01.924Z,105
2016-04-15T11:23:01.927Z,100
2016-04-15T11:24:01.960Z,110
2016-04-15T11:25:01.963Z,110
2016-04-15T11:26:01.965Z,110
2016-04-15T11:27:01.968Z,100
2016-04-15T11:28:01.971Z,130
2016-04-15T11:29:01.989Z,115
2016-04-15T11:30:01.992Z,120
2016-04-15T11:31:22.216Z,120
2016-04-15T11:32:02.529Z,120
2016-04-15T11:33:02.000Z,120
2016-04-15T11:34:02.034Z,120
2016-04-15T11:35:02.787Z,125
2016-04-15T11:36:02.040Z,115
2016-04-15T11:37:02.042Z,125
2016-04-15T11:38:02.045Z,110
2016-04-15T11:39:02.062Z,110
2016-04-15T11:40:02.066Z,95
2016-04-15T11:41:02.068Z,95
2016-04-15T11:42:02.071Z,90
2016-04-15T11:43:02.089Z,90
2016-04-15T11:44:02.108Z,95
2016-04-15T11:45:02.111Z,90
2016-04-15T11:46:02.113Z,90
2016-04-15T11:47:02.475Z,85
2016-04-15T11:48:02.119Z,85
2016-04-15T11:49:02.121Z,85
2016-04-15T11:50:02.874Z,95
2016-04-15T11:51:02.142Z,80
2016-04-15T11:52:02.160Z,80
2016-04-15T11:53:02.178Z,75
2016-04-15T11:54:02.166Z,70
2016-04-15T11:55:03.433Z,70
2016-04-15T11:56:02.186Z,75
2016-04-15T11:57:02.189Z,75
2016-04-15T11:58:02.208Z,75
2016-04-15T11:59:02.195Z,70
2016-04-15T12:00:02.338Z,70
2016-04-15T12:01:02.216Z,70
2016-04-15T12:02:02.343Z,70
2016-04-15T12:03:02.221Z,70
2016-04-15T12:04:02.239Z,75
2016-04-15T12:05:03.195Z,75
2016-04-15T12:06:02.245Z,75
2016-04-15T12:07:02.248Z,75
2016-04-15T12:08:02.281Z,70
2016-04-15T12:09:02.051Z,70
2016-04-15T12:10:03.164Z,70
2016-04-15T12:11:02.292Z,70
2016-04-15T12:12:02.389Z,70
2016-04-15T12:13:02.313Z,75
2016-04-15T12:14:02.316Z,75
2016-04-15T12:15:03.302Z,75
2016-04-15T12:16:02.633Z,85
2016-04-15T12:17:02.619Z,80
2016-04-15T12:18:02.342Z,70
2016-04-15T12:19:02.344Z,70
2016-04-15T12:20:02.347Z,70
2016-04-15T12:21:02.366Z,65
2016-04-15T12:22:02.212Z,65
2016-04-15T12:23:02.371Z,70
2016-04-15T12:24:02.373Z,70
2016-04-15T12:25:02.407Z,75
2016-04-15T12:26:02.389Z,70
2016-04-15T12:27:02.109Z,65
2016-04-15T12:28:02.409Z,60
2016-04-15T12:29:02.428Z,60
2016-04-15T12:30:02.431Z,65
2016-04-15T12:31:02.434Z,60
2016-04-15T12:32:02.436Z,60
2016-04-15T12:33:02.470Z,75
2016-04-15T12:34:02.441Z,90
2016-04-15T12:35:02.459Z,75
2016-04-15T12:36:02.478Z,75
2016-04-15T12:37:02.481Z,80
2016-04-15T12:38:02.484Z,80
2016-04-15T12:39:02.502Z,85
2016-04-15T12:40:02.489Z,70
2016-04-15T12:41:02.507Z,70
2016-04-15T12:42:02.510Z,80
2016-04-15T12:43:02.513Z,90
2016-04-15T12:44:02.530Z,90
2016-04-15T12:45:02.533Z,95
2016-04-15T12:46:02.379Z,90
2016-04-15T12:47:02.571Z,90
2016-04-15T12:48:02.588Z,85
2016-04-15T12:49:02.560Z,85
2016-04-15T12:50:02.563Z,85
2016-04-15T12:51:02.565Z,75
2016-04-15T12:52:02.584Z,75
2016-04-15T12:53:02.586Z,75
2016-04-15T12:54:02.589Z,70
2016-04-15T12:55:02.606Z,70
2016-04-15T12:56:02.609Z,70
2016-04-15T12:57:02.643Z,70
2016-04-15T12:58:02.615Z,70
2016-04-15T12:59:02.649Z,70
2016-04-15T13:00:02.667Z,75
2016-04-15T13:01:12.188Z,80
2016-04-15T13:02:02.656Z,80
2016-04-15T13:03:02.659Z,80
2016-04-15T13:04:02.662Z,75
2016-04-15T13:05:02.665Z,70
2016-04-15T13:06:02.700Z,70
2016-04-15T13:07:02.687Z,75
2016-04-15T13:08:02.689Z,70
2016-04-15T13:09:02.692Z,70
2016-04-15T13:10:02.694Z,75
2016-04-15T13:11:02.728Z,75
2016-04-15T13:12:02.715Z,75
2016-04-15T13:13:02.733Z,75
2016-04-15T13:14:02.736Z,75
2016-04-15T13:15:02.739Z,70
2016-04-15T13:16:02.758Z,65
2016-04-15T13:17:02.760Z,55
2016-04-15T13:18:02.768Z,60
2016-04-15T13:19:02.771Z,60
2016-04-15T13:20:02.788Z,65
2016-04-15T13:21:02.807Z,65
2016-04-15T13:22:02.809Z,65
2016-04-15T13:23:02.812Z,70
2016-04-15T13:24:02.815Z,70
2016-04-15T13:25:02.818Z,75
2016-04-15T13:26:02.820Z,70
2016-04-15T13:27:02.839Z,65
2016-04-15T13:28:02.842Z,65
2016-04-15T13:29:02.844Z,65
2016-04-15T13:30:02.847Z,65
2016-04-15T13:31:02.864Z,60
2016-04-15T13:32:02.867Z,60
2016-04-15T13:33:02.886Z,60
2016-04-15T13:34:02.889Z,60
2016-04-15T13:35:02.892Z,55
2016-04-15T13:36:02.894Z,50
2016-04-15T13:37:02.897Z,60
2016-04-15T13:38:02.916Z,50
2016-04-15T13:39:02.918Z,50
2016-04-15T13:40:02.936Z,60
2016-04-15T13:41:02.923Z,65
2016-04-15T13:42:02.941Z,60
2016-04-15T13:43:02.959Z,65
2016-04-15T13:44:02.946Z,60
2016-04-15T13:45:02.965Z,55
2016-04-15T13:46:02.952Z,60
2016-04-15T13:47:02.971Z,55
2016-04-15T13:48:02.989Z,60
2016-04-15T13:49:02.976Z,70
2016-04-15T13:50:02.994Z,75
2016-04-15T13:51:02.996Z,75
2016-04-15T13:52:03.016Z,70
2016-04-15T13:53:03.002Z,70
2016-04-15T13:54:03.021Z,65
2016-04-15T13:55:03.023Z,70
2016-04-15T13:56:03.042Z,60
2016-04-15T13:57:03.045Z,55
2016-04-15T13:58:03.047Z,60
2016-04-15T13:59:03.081Z,60
2016-04-15T14:00:03.067Z,65
2016-04-15T14:01:03.070Z,65
2016-04-15T14:02:03.073Z,65
2016-04-15T14:03:03.076Z,65
2016-04-15T14:04:03.111Z,70
2016-04-15T14:05:03.097Z,65
2016-04-15T14:06:03.116Z,60
2016-04-15T14:07:03.118Z,55
2016-04-15T14:08:03.121Z,60
2016-04-15T14:09:03.124Z,60
2016-04-15T14:10:03.141Z,50
2016-04-15T14:11:03.129Z,50
2016-04-15T14:12:03.162Z,50
2016-04-15T14:13:03.150Z,45
2016-04-15T14:14:03.168Z,50
2016-04-15T14:15:03.171Z,55
2016-04-15T14:16:03.174Z,55
2016-04-15T14:17:03.191Z,55
2016-04-15T14:18:03.194Z,55
2016-04-15T14:19:03.196Z,60
2016-04-15T14:20:03.216Z,60
2016-04-15T14:21:03.203Z,60
2016-04-15T14:22:03.205Z,60
2016-04-15T14:23:03.271Z,60
2016-04-15T14:24:03.257Z,65
2016-04-15T14:25:03.260Z,65
2016-04-15T14:26:03.248Z,65
2016-04-15T14:27:03.250Z,65
2016-04-15T14:28:03.253Z,65